createdAt,value
2022-11-18T00:00:51.029Z,6.54
2022-11-18T00:01:51.014Z,6.55
2022-11-18T00:02:51.002Z,6.59
2022-11-18T00:03:51.005Z,6.58
2022-11-18T00:04:50.957Z,6.54
2022-11-18T00:05:50.921Z,6.52
2022-11-18T00:06:50.926Z,6.51
2022-11-18T00:07:50.888Z,6.52
2022-11-18T00:08:50.911Z,6.49
2022-11-18T00:09:50.854Z,6.58
2022-11-18T00:10:50.854Z,6.64
2022-11-18T00:11:50.817Z,6.67
2022-11-18T00:12:50.818Z,6.64
2022-11-18T00:13:50.805Z,6.61
2022-11-18T00:14:50.805Z,6.76
2022-11-18T00:15:50.753Z,6.77
2022-11-18T00:16:50.739Z,6.71
2022-11-18T00:17:50.709Z,6.76
2022-11-18T00:18:50.717Z,6.69
2022-11-18T00:19:50.694Z,6.79
2022-11-18T00:20:50.678Z,6.77
2022-11-18T00:21:50.634Z,6.66
2022-11-18T00:22:50.633Z,6.74
2022-11-18T00:23:50.604Z,6.69
2022-11-18T00:24:50.652Z,6.71
2022-11-18T00:25:50.564Z,6.70
2022-11-18T00:26:50.563Z,6.70
2022-11-18T00:27:50.528Z,6.71
2022-11-18T00:28:50.530Z,6.69
2022-11-18T00:29:50.493Z,6.67
2022-11-18T00:30:50.565Z,6.73
2022-11-18T00:31:50.459Z,6.74
2022-11-18T00:32:50.452Z,6.76
2022-11-18T00:33:50.418Z,6.79
2022-11-18T00:34:50.422Z,6.80
2022-11-18T00:35:50.389Z,6.87
2022-11-18T00:36:50.383Z,6.88
2022-11-18T00:37:50.356Z,6.79
2022-11-18T00:38:50.348Z,6.87
2022-11-18T00:39:50.412Z,6.84
2022-11-18T00:40:50.310Z,6.80
2022-11-18T00:41:50.281Z,6.81
2022-11-18T00:42:50.284Z,6.77
2022-11-18T00:43:50.240Z,6.79
2022-11-18T00:44:50.251Z,6.62
2022-11-18T00:45:50.215Z,6.69
2022-11-18T00:46:50.244Z,6.74
2022-11-18T00:47:50.173Z,6.70
2022-11-18T00:48:50.214Z,6.74
2022-11-18T00:49:50.145Z,6.74
2022-11-18T00:50:50.136Z,6.69
2022-11-18T00:51:50.170Z,6.66
2022-11-18T00:52:50.099Z,6.67
2022-11-18T00:53:50.062Z,6.62
2022-11-18T00:54:50.062Z,6.71
2022-11-18T00:55:50.026Z,6.69
2022-11-18T00:56:50.027Z,6.62
2022-11-18T00:57:50.036Z,6.64
2022-11-18T00:58:50.021Z,6.61
2022-11-18T00:59:49.988Z,6.67
2022-11-18T01:00:50.005Z,6.67
2022-11-18T01:01:49.965Z,6.71
2022-11-18T01:02:49.919Z,6.56
2022-11-18T01:03:49.912Z,6.64
2022-11-18T01:04:49.881Z,6.62
2022-11-18T01:05:49.853Z,6.66
2022-11-18T01:06:49.845Z,6.62
2022-11-18T01:07:49.810Z,6.66
2022-11-18T01:08:49.864Z,6.61
2022-11-18T01:09:49.781Z,6.61
2022-11-18T01:10:49.775Z,6.62
2022-11-18T01:11:49.748Z,6.69
2022-11-18T01:12:54.078Z,6.66
2022-11-18T01:13:49.731Z,6.58
2022-11-18T01:14:49.722Z,6.66
2022-11-18T01:15:49.701Z,6.62
2022-11-18T01:16:49.676Z,6.62
2022-11-18T01:17:49.670Z,6.59
2022-11-18T01:18:49.633Z,6.64
2022-11-18T01:19:49.628Z,6.64
2022-11-18T01:20:49.597Z,6.66
2022-11-18T01:21:49.563Z,6.62
2022-11-18T01:22:49.591Z,6.61
2022-11-18T01:23:49.524Z,6.62
2022-11-18T01:24:49.524Z,6.62
2022-11-18T01:25:49.491Z,6.62
2022-11-18T01:26:49.522Z,6.70
2022-11-18T01:27:49.489Z,6.71
2022-11-18T01:28:49.454Z,6.64
2022-11-18T01:29:49.417Z,6.67
2022-11-18T01:30:49.420Z,6.64
2022-11-18T01:32:22.236Z,6.64
2022-11-18T01:32:49.406Z,6.70
2022-11-18T01:33:49.348Z,6.66
2022-11-18T01:34:49.349Z,6.74
2022-11-18T01:35:49.327Z,6.64
2022-11-18T01:36:49.311Z,6.64
2022-11-18T01:37:49.274Z,6.70
2022-11-18T01:38:49.274Z,6.67
2022-11-18T01:39:49.240Z,6.67
2022-11-18T01:40:49.242Z,6.71
2022-11-18T01:41:49.254Z,6.76
2022-11-18T01:42:49.201Z,6.70
2022-11-18T01:43:49.169Z,6.70
2022-11-18T01:44:49.167Z,6.71
2022-11-18T01:45:49.137Z,6.71
2022-11-18T01:46:49.127Z,6.80
2022-11-18T01:47:49.151Z,6.71
2022-11-18T01:48:49.091Z,6.67
2022-11-18T01:49:49.073Z,6.79
2022-11-18T01:50:49.083Z,6.71
2022-11-18T01:51:49.028Z,6.67
2022-11-18T01:52:51.829Z,6.71
2022-11-18T01:53:48.992Z,6.71
2022-11-18T01:54:48.986Z,6.79
2022-11-18T01:55:48.958Z,6.74
2022-11-18T01:56:48.950Z,6.69
2022-11-18T01:57:48.924Z,6.70
2022-11-18T01:58:48.947Z,6.76
2022-11-18T01:59:48.886Z,6.81
2022-11-18T02:00:48.880Z,6.80
2022-11-18T02:01:48.914Z,6.85
2022-11-18T02:02:48.860Z,6.91
2022-11-18T02:03:48.808Z,6.87
2022-11-18T02:04:48.808Z,6.88
2022-11-18T02:05:48.801Z,6.80
2022-11-18T02:06:48.768Z,6.81
2022-11-18T02:07:48.736Z,6.77
2022-11-18T02:08:48.732Z,6.88
2022-11-18T02:09:48.701Z,6.84
2022-11-18T02:10:48.740Z,6.80
2022-11-18T02:11:48.721Z,6.89
2022-11-18T02:12:48.661Z,6.89
2022-11-18T02:13:48.628Z,6.92
2022-11-18T02:14:48.629Z,6.89
2022-11-18T02:15:48.625Z,6.92
2022-11-18T02:16:48.599Z,6.88
2022-11-18T02:17:48.557Z,6.88
2022-11-18T02:18:48.554Z,6.94
2022-11-18T02:19:48.521Z,6.89
2022-11-18T02:20:48.550Z,6.98
2022-11-18T02:21:48.489Z,6.97
2022-11-18T02:22:48.488Z,6.89
2022-11-18T02:23:48.476Z,6.92
2022-11-18T02:24:48.448Z,6.94
2022-11-18T02:25:48.415Z,6.95
2022-11-18T02:26:48.430Z,6.92
2022-11-18T02:27:48.409Z,6.91
2022-11-18T02:28:48.376Z,6.92
2022-11-18T02:29:48.346Z,6.95
2022-11-18T02:30:48.340Z,6.92
2022-11-18T02:31:48.312Z,6.81
2022-11-18T02:32:48.302Z,6.87
2022-11-18T02:33:48.283Z,6.92
2022-11-18T02:34:48.283Z,6.95
2022-11-18T02:35:48.236Z,6.94
2022-11-18T02:36:48.232Z,6.92
2022-11-18T02:37:48.199Z,6.92
2022-11-18T02:38:48.199Z,6.88
2022-11-18T02:39:48.205Z,6.89
2022-11-18T02:40:48.163Z,6.88
2022-11-18T02:41:48.130Z,6.92
2022-11-18T02:42:48.130Z,6.98
2022-11-18T02:43:48.110Z,6.94
2022-11-18T02:44:48.094Z,6.94
2022-11-18T02:45:48.059Z,6.97
2022-11-18T02:46:48.056Z,6.91
2022-11-18T02:47:48.028Z,6.95
2022-11-18T02:48:48.041Z,7.03
2022-11-18T02:49:47.990Z,6.97
2022-11-18T02:50:47.988Z,6.94
2022-11-18T02:51:48.007Z,7.02
2022-11-18T02:52:47.948Z,6.88
2022-11-18T02:53:47.912Z,6.98
2022-11-18T02:54:47.912Z,6.91
2022-11-18T02:55:47.891Z,6.89
2022-11-18T02:56:47.880Z,6.91
2022-11-18T02:57:47.907Z,6.98
2022-11-18T02:58:47.854Z,6.98
2022-11-18T02:59:47.818Z,6.89
2022-11-18T03:00:47.811Z,6.91
2022-11-18T03:01:47.880Z,6.91
2022-11-18T03:02:47.767Z,6.91
2022-11-18T03:03:47.830Z,6.92
2022-11-18T03:04:47.748Z,6.97
2022-11-18T03:05:47.700Z,6.92
2022-11-18T03:06:47.732Z,6.95
2022-11-18T03:07:47.663Z,6.91
2022-11-18T03:08:47.662Z,6.87
2022-11-18T03:09:47.658Z,6.91
2022-11-18T03:10:47.634Z,6.95
2022-11-18T03:11:47.596Z,6.92
2022-11-18T03:12:47.594Z,6.91
2022-11-18T03:13:47.555Z,6.88
2022-11-18T03:14:47.592Z,6.89
2022-11-18T03:15:47.524Z,6.95
2022-11-18T03:16:47.516Z,6.95
2022-11-18T03:17:47.500Z,6.89
2022-11-18T03:18:47.487Z,6.89
2022-11-18T03:19:47.548Z,6.92
2022-11-18T03:20:47.482Z,6.77
2022-11-18T03:21:47.416Z,6.80
2022-11-18T03:22:47.415Z,6.95
2022-11-18T03:23:47.380Z,6.92
2022-11-18T03:24:47.377Z,6.94
2022-11-18T03:25:47.373Z,6.92
2022-11-18T03:26:47.339Z,6.89
2022-11-18T03:27:47.312Z,6.91
2022-11-18T03:28:47.311Z,6.95
2022-11-18T03:29:47.275Z,7.02
2022-11-18T03:30:47.346Z,6.91
2022-11-18T03:31:47.239Z,6.80
2022-11-18T03:32:47.232Z,6.92
2022-11-18T03:33:47.201Z,6.95
2022-11-18T03:34:47.197Z,6.88
2022-11-18T03:35:47.168Z,6.85
2022-11-18T03:36:51.386Z,6.81
2022-11-18T03:37:47.133Z,6.92
2022-11-18T03:38:47.134Z,6.80
2022-11-18T03:39:47.101Z,6.91
2022-11-18T03:40:47.098Z,6.84
2022-11-18T03:41:47.057Z,6.84
2022-11-18T03:42:47.073Z,6.76
2022-11-18T03:43:47.025Z,6.81
2022-11-18T03:44:52.083Z,6.85
2022-11-18T03:45:46.985Z,6.84
2022-11-18T03:46:47.016Z,6.84
2022-11-18T03:47:46.984Z,6.84
2022-11-18T03:48:46.949Z,6.84
2022-11-18T03:49:46.944Z,6.80
2022-11-18T03:50:46.913Z,6.88
2022-11-18T03:51:46.878Z,6.80
2022-11-18T03:52:46.900Z,6.91
2022-11-18T03:53:46.923Z,6.87
2022-11-18T03:54:46.831Z,6.73
2022-11-18T03:55:46.855Z,6.84
2022-11-18T03:56:46.790Z,6.81
2022-11-18T03:57:46.789Z,6.80
2022-11-18T03:58:46.756Z,6.81
2022-11-18T03:59:46.788Z,6.80
2022-11-18T04:00:46.715Z,6.87
2022-11-18T04:01:46.764Z,6.87
2022-11-18T04:02:46.685Z,6.81
2022-11-18T04:03:46.695Z,6.79
2022-11-18T04:04:46.671Z,6.76
2022-11-18T04:05:46.677Z,6.84
2022-11-18T04:06:46.614Z,6.79
2022-11-18T04:07:46.609Z,6.81
2022-11-18T04:08:46.575Z,6.79
2022-11-18T04:09:46.582Z,6.85
2022-11-18T04:10:46.552Z,6.80
2022-11-18T04:11:46.537Z,6.84
2022-11-18T04:12:46.528Z,6.84
2022-11-18T04:13:46.501Z,6.81
2022-11-18T04:14:46.486Z,6.81
2022-11-18T04:15:46.467Z,6.84
2022-11-18T04:16:46.435Z,6.85
2022-11-18T04:17:46.483Z,6.81
2022-11-18T04:18:46.399Z,6.87
2022-11-18T04:19:46.392Z,6.88
2022-11-18T04:20:46.365Z,6.84
2022-11-18T04:21:46.365Z,6.88
2022-11-18T04:22:46.323Z,6.88
2022-11-18T04:23:46.326Z,6.88
2022-11-18T04:24:46.291Z,6.80
2022-11-18T04:25:46.288Z,6.79
2022-11-18T04:26:46.257Z,6.88
2022-11-18T04:27:46.275Z,6.84
2022-11-18T04:28:46.418Z,6.85
2022-11-18T04:29:46.218Z,6.84
2022-11-18T04:30:46.185Z,6.87
2022-11-18T04:31:46.177Z,6.87
2022-11-18T04:32:46.145Z,6.84
2022-11-18T04:33:46.139Z,6.79
2022-11-18T04:34:46.138Z,6.81
2022-11-18T04:35:46.121Z,6.85
2022-11-18T04:36:46.081Z,6.79
2022-11-18T04:37:46.100Z,6.77
2022-11-18T04:38:46.038Z,6.71
2022-11-18T04:39:46.130Z,6.84
2022-11-18T04:40:46.005Z,6.80
2022-11-18T04:41:46.023Z,6.73
2022-11-18T04:42:45.965Z,6.84
2022-11-18T04:43:45.963Z,6.79
2022-11-18T04:44:45.958Z,6.81
2022-11-18T04:45:46.001Z,6.77
2022-11-18T04:46:45.914Z,6.76
2022-11-18T04:47:45.910Z,6.76
2022-11-18T04:48:45.861Z,6.77
2022-11-18T04:49:45.882Z,6.70
2022-11-18T04:50:45.827Z,6.67
2022-11-18T04:51:45.847Z,6.73
2022-11-18T04:52:45.787Z,6.70
2022-11-18T04:53:45.791Z,6.80
2022-11-18T04:54:45.752Z,6.73
2022-11-18T04:55:45.753Z,6.67
2022-11-18T04:56:49.147Z,6.73
2022-11-18T04:57:45.712Z,6.74
2022-11-18T04:58:45.683Z,6.64
2022-11-18T04:59:45.680Z,6.62
2022-11-18T05:00:45.670Z,6.76
2022-11-18T05:01:45.747Z,6.67
2022-11-18T05:02:45.613Z,6.69
2022-11-18T05:03:50.416Z,6.70
2022-11-18T05:04:45.570Z,6.70
2022-11-18T05:05:45.571Z,6.70
2022-11-18T05:06:45.616Z,6.67
2022-11-18T05:07:45.593Z,6.66
2022-11-18T05:08:45.513Z,6.67
2022-11-18T05:09:45.505Z,6.77
2022-11-18T05:10:45.466Z,6.70
2022-11-18T05:11:45.464Z,6.62
2022-11-18T05:12:45.430Z,6.69
2022-11-18T05:13:45.431Z,6.61
2022-11-18T05:14:49.966Z,6.66
2022-11-18T05:15:45.394Z,6.59
2022-11-18T05:16:45.360Z,6.58
2022-11-18T05:17:45.359Z,6.66
2022-11-18T05:18:45.323Z,6.56
2022-11-18T05:19:45.320Z,6.51
2022-11-18T05:20:45.288Z,6.49
2022-11-18T05:21:45.292Z,6.58
2022-11-18T05:22:45.306Z,6.54
2022-11-18T05:23:45.256Z,6.67
2022-11-18T05:24:45.216Z,6.58
2022-11-18T05:25:45.213Z,6.66
2022-11-18T05:26:45.179Z,6.49
2022-11-18T05:27:45.182Z,6.54
2022-11-18T05:28:45.170Z,6.64
2022-11-18T05:29:45.144Z,6.58
2022-11-18T05:30:45.109Z,6.52
2022-11-18T05:31:45.105Z,6.64
2022-11-18T05:32:45.094Z,6.67
2022-11-18T05:33:45.072Z,6.61
2022-11-18T05:34:45.039Z,6.61
2022-11-18T05:35:45.034Z,6.58
2022-11-18T05:36:45.001Z,6.46
2022-11-18T05:37:45.061Z,6.51
2022-11-18T05:38:44.964Z,6.48
2022-11-18T05:39:44.961Z,6.52
2022-11-18T05:40:44.947Z,6.54
2022-11-18T05:41:44.929Z,6.62
2022-11-18T05:42:44.894Z,6.52
2022-11-18T05:43:44.928Z,6.58
2022-11-18T05:44:44.860Z,6.62
2022-11-18T05:45:44.856Z,6.61
2022-11-18T05:46:44.818Z,6.58
2022-11-18T05:47:44.844Z,6.54
2022-11-18T05:48:44.814Z,6.54
2022-11-18T05:49:44.787Z,6.55
2022-11-18T05:50:44.772Z,6.61
2022-11-18T05:51:44.748Z,6.58
2022-11-18T05:52:44.716Z,6.46
2022-11-18T05:53:44.720Z,6.48
2022-11-18T05:54:44.733Z,6.55
2022-11-18T05:55:44.678Z,6.46
2022-11-18T05:56:44.651Z,6.49
2022-11-18T05:57:44.637Z,6.59
2022-11-18T05:58:44.603Z,6.52
2022-11-18T05:59:44.650Z,6.51
2022-11-18T06:00:44.594Z,6.55
2022-11-18T06:01:44.567Z,6.52
2022-11-18T06:02:44.568Z,6.51
2022-11-18T06:03:44.528Z,6.48
2022-11-18T06:04:44.495Z,6.51
2022-11-18T06:05:44.518Z,6.52
2022-11-18T06:06:44.458Z,6.54
2022-11-18T06:07:44.549Z,6.66
2022-11-18T06:08:44.423Z,6.51
2022-11-18T06:09:44.418Z,6.55
2022-11-18T06:10:44.389Z,6.59
2022-11-18T06:11:44.384Z,6.56
2022-11-18T06:12:44.360Z,6.64
2022-11-18T06:13:44.351Z,6.55
2022-11-18T06:14:44.312Z,6.58
2022-11-18T06:15:44.332Z,6.56
2022-11-18T06:16:44.278Z,6.61
2022-11-18T06:17:44.274Z,6.55
2022-11-18T06:18:44.248Z,6.56
2022-11-18T06:19:44.246Z,6.51
2022-11-18T06:20:44.210Z,6.56
2022-11-18T06:21:44.207Z,6.55
2022-11-18T06:22:46.666Z,6.51
2022-11-18T06:23:44.165Z,6.51
2022-11-18T06:24:44.154Z,6.48
2022-11-18T06:25:44.178Z,6.58
2022-11-18T06:26:44.102Z,6.52
2022-11-18T06:27:44.104Z,6.46
2022-11-18T06:28:44.063Z,6.41
2022-11-18T06:29:44.071Z,6.43
2022-11-18T06:30:44.030Z,6.46
2022-11-18T06:31:44.083Z,6.49
2022-11-18T06:32:43.990Z,6.44
2022-11-18T06:33:44.042Z,6.49
2022-11-18T06:34:43.989Z,6.51
2022-11-18T06:35:43.949Z,6.48
2022-11-18T06:36:43.929Z,6.44
2022-11-18T06:37:43.940Z,6.46
2022-11-18T06:38:43.882Z,6.44
2022-11-18T06:39:43.909Z,6.41
2022-11-18T06:40:43.845Z,6.40
2022-11-18T06:41:43.842Z,6.40
2022-11-18T06:42:43.835Z,6.41
2022-11-18T06:43:43.812Z,6.46
2022-11-18T06:44:43.841Z,6.43
2022-11-18T06:45:43.780Z,6.44
2022-11-18T06:46:43.737Z,6.31
2022-11-18T06:47:43.893Z,6.41
2022-11-18T06:48:43.708Z,6.37
2022-11-18T06:49:43.700Z,6.44
2022-11-18T06:50:43.662Z,6.36
2022-11-18T06:51:43.687Z,6.36
2022-11-18T06:52:43.634Z,6.37
2022-11-18T06:53:43.626Z,6.34
2022-11-18T06:54:43.593Z,6.33
2022-11-18T06:55:43.592Z,6.34
2022-11-18T06:56:43.584Z,6.34
2022-11-18T06:57:43.553Z,6.38
2022-11-18T06:58:43.544Z,6.38
2022-11-18T06:59:43.513Z,6.36
2022-11-18T07:00:43.513Z,6.34
2022-11-18T07:01:43.507Z,6.38
2022-11-18T07:02:43.449Z,6.36
2022-11-18T07:03:43.443Z,6.33
2022-11-18T07:04:43.410Z,6.22
2022-11-18T07:05:43.409Z,6.11
2022-11-18T07:06:43.465Z,6.25
2022-11-18T07:07:43.413Z,6.27
2022-11-18T07:08:43.336Z,6.28
2022-11-18T07:09:43.336Z,6.33
2022-11-18T07:10:43.299Z,6.22
2022-11-18T07:11:43.305Z,6.33
2022-11-18T07:12:43.281Z,6.38
2022-11-18T07:13:43.989Z,6.30
2022-11-18T07:14:43.229Z,6.30
2022-11-18T07:15:43.236Z,6.30
2022-11-18T07:16:43.188Z,6.31
2022-11-18T07:17:43.202Z,6.34
2022-11-18T07:18:43.194Z,6.28
2022-11-18T07:19:43.153Z,6.34
2022-11-18T07:20:43.116Z,6.37
2022-11-18T07:21:43.117Z,6.40
2022-11-18T07:22:43.085Z,6.43
2022-11-18T07:23:43.111Z,6.37
2022-11-18T07:24:43.071Z,6.40
2022-11-18T07:25:45.374Z,6.43
2022-11-18T07:26:43.008Z,6.44
2022-11-18T07:27:43.005Z,6.36
2022-11-18T07:28:43.007Z,6.36
2022-11-18T07:29:43.001Z,6.30
2022-11-18T07:30:42.938Z,6.34
2022-11-18T07:31:42.934Z,6.31
2022-11-18T07:32:42.907Z,6.31
2022-11-18T07:33:42.898Z,6.30
2022-11-18T07:34:42.882Z,6.44
2022-11-18T07:35:42.860Z,6.37
2022-11-18T07:36:42.833Z,6.33
2022-11-18T07:37:42.824Z,6.34
2022-11-18T07:38:42.791Z,6.37
2022-11-18T07:39:42.794Z,6.40
2022-11-18T07:40:42.756Z,6.30
2022-11-18T07:41:42.756Z,6.38
2022-11-18T07:42:42.907Z,6.31
2022-11-18T07:43:42.790Z,6.34
2022-11-18T07:44:42.728Z,6.38
2022-11-18T07:45:42.688Z,6.37
2022-11-18T07:46:42.681Z,6.34
2022-11-18T07:47:42.661Z,6.34
2022-11-18T07:48:42.615Z,6.34
2022-11-18T07:49:42.701Z,6.33
2022-11-18T07:50:47.011Z,6.38
2022-11-18T07:51:42.612Z,6.33
2022-11-18T07:52:42.539Z,6.31
2022-11-18T07:53:42.585Z,6.28
2022-11-18T07:54:42.578Z,6.33
2022-11-18T07:55:42.507Z,6.31
2022-11-18T07:56:42.496Z,6.22
2022-11-18T07:57:42.464Z,6.34
2022-11-18T07:58:42.484Z,6.28
2022-11-18T07:59:42.440Z,6.27
2022-11-18T08:00:42.394Z,6.27
2022-11-18T08:01:42.452Z,6.28
2022-11-18T08:02:42.365Z,6.34
2022-11-18T08:03:42.355Z,6.15
2022-11-18T08:04:42.371Z,6.21
2022-11-18T08:05:42.366Z,6.28
2022-11-18T08:06:42.308Z,6.27
2022-11-18T08:07:42.348Z,6.28
2022-11-18T08:08:42.262Z,6.22
2022-11-18T08:09:42.266Z,6.28
2022-11-18T08:10:42.236Z,6.34
2022-11-18T08:11:42.210Z,6.31
2022-11-18T08:12:42.203Z,6.30
2022-11-18T08:13:42.163Z,6.25
2022-11-18T08:14:42.184Z,6.31
2022-11-18T08:15:42.136Z,6.27
2022-11-18T08:16:42.122Z,6.25
2022-11-18T08:17:42.117Z,6.22
2022-11-18T08:18:42.081Z,6.21
2022-11-18T08:19:42.050Z,6.22
2022-11-18T08:20:42.046Z,6.34
2022-11-18T08:21:42.022Z,6.21
2022-11-18T08:22:42.074Z,6.31
2022-11-18T08:23:42.854Z,6.36
2022-11-18T08:24:41.983Z,6.28
2022-11-18T08:25:41.985Z,6.28
2022-11-18T08:26:41.949Z,6.38
2022-11-18T08:27:41.911Z,6.31
2022-11-18T08:28:42.016Z,6.37
2022-11-18T08:29:41.869Z,6.31
2022-11-18T08:30:41.870Z,6.38
2022-11-18T08:31:41.875Z,6.34
2022-11-18T08:32:41.835Z,6.36
2022-11-18T08:33:41.797Z,6.37
2022-11-18T08:34:41.797Z,6.38
2022-11-18T08:35:41.761Z,6.34
2022-11-18T08:36:41.791Z,6.31
2022-11-18T08:37:41.741Z,6.37
2022-11-18T08:38:41.729Z,6.38
2022-11-18T08:39:41.691Z,6.34
2022-11-18T08:40:41.686Z,6.36
2022-11-18T08:41:41.663Z,6.33
2022-11-18T08:42:41.649Z,6.34
2022-11-18T08:43:41.618Z,6.40
2022-11-18T08:44:41.636Z,6.31
2022-11-18T08:45:41.579Z,6.44
2022-11-18T08:46:41.615Z,6.41
2022-11-18T08:47:41.581Z,6.44
2022-11-18T08:48:41.550Z,6.41
2022-11-18T08:49:41.522Z,6.41
2022-11-18T08:50:41.537Z,6.36
2022-11-18T08:51:41.480Z,6.46
2022-11-18T08:52:41.468Z,6.44
2022-11-18T08:53:41.433Z,6.38
2022-11-18T08:54:41.436Z,6.34
2022-11-18T08:55:41.426Z,6.41
2022-11-18T08:56:41.396Z,6.36
2022-11-18T08:57:41.370Z,6.38
2022-11-18T08:58:41.360Z,6.36
2022-11-18T08:59:41.326Z,6.37
2022-11-18T09:00:41.410Z,6.34
2022-11-18T09:01:41.339Z,6.31
2022-11-18T09:02:41.292Z,6.28
2022-11-18T09:03:41.253Z,6.21
2022-11-18T09:04:41.254Z,6.18
2022-11-18T09:05:41.547Z,6.25
2022-11-18T09:06:41.516Z,6.14
2022-11-18T09:07:41.243Z,6.18
2022-11-18T09:08:41.179Z,6.15
2022-11-18T09:09:41.151Z,6.28
2022-11-18T09:10:41.157Z,6.18
2022-11-18T09:11:41.110Z,6.31
2022-11-18T09:12:41.125Z,6.12
2022-11-18T09:14:04.296Z,6.30
2022-11-18T09:15:41.039Z,6.28
2022-11-18T09:16:41.037Z,6.28
2022-11-18T09:17:41.003Z,6.12
2022-11-18T09:18:41.012Z,6.25
2022-11-18T09:19:47.186Z,6.22
2022-11-18T09:20:40.963Z,6.14
2022-11-18T09:21:41.184Z,6.17
2022-11-18T09:22:40.930Z,6.25
2022-11-18T09:23:40.928Z,6.14
2022-11-18T09:24:40.897Z,6.01
2022-11-18T09:25:40.860Z,6.01
2022-11-18T09:26:40.861Z,6.03
2022-11-18T09:27:40.830Z,6.03
2022-11-18T09:28:40.820Z,6.01
2022-11-18T09:29:40.813Z,6.00
2022-11-18T09:30:40.785Z,6.06
2022-11-18T09:31:40.761Z,5.99
2022-11-18T09:32:40.781Z,6.00
2022-11-18T09:33:40.712Z,6.04
2022-11-18T09:34:40.725Z,6.01
2022-11-18T09:35:40.738Z,6.04
2022-11-18T09:36:40.678Z,6.06
2022-11-18T09:37:40.645Z,6.06
2022-11-18T09:38:40.644Z,6.04
2022-11-18T09:39:40.604Z,6.06
2022-11-18T09:40:40.630Z,6.01
2022-11-18T09:41:40.570Z,6.11
2022-11-18T09:42:40.570Z,6.09
2022-11-18T09:43:40.578Z,6.06
2022-11-18T09:44:40.533Z,6.09
2022-11-18T09:45:40.723Z,6.15
2022-11-18T09:46:40.586Z,6.15
2022-11-18T09:47:40.553Z,6.19
2022-11-18T09:48:40.557Z,6.15
2022-11-18T09:49:40.545Z,6.17
2022-11-18T09:50:55.752Z,6.12
2022-11-18T09:51:40.592Z,6.11
2022-11-18T09:52:40.402Z,6.09
2022-11-18T09:53:40.476Z,6.12
2022-11-18T09:54:40.475Z,6.11
2022-11-18T09:55:40.468Z,6.09
2022-11-18T09:56:40.701Z,6.03
2022-11-18T09:57:40.296Z,5.99
2022-11-18T09:58:40.404Z,6.01
2022-11-18T09:59:40.399Z,5.85
2022-11-18T10:00:40.384Z,5.94
2022-11-18T10:01:40.490Z,6.01
2022-11-18T10:02:40.321Z,5.97
2022-11-18T10:03:40.296Z,6.01
2022-11-18T10:04:40.256Z,5.96
2022-11-18T10:05:40.274Z,5.91
2022-11-18T10:06:40.340Z,5.85
2022-11-18T10:07:40.278Z,5.91
2022-11-18T10:08:40.120Z,5.90
2022-11-18T10:09:40.184Z,5.93
2022-11-18T10:10:40.188Z,5.83
2022-11-18T10:11:42.082Z,5.81
2022-11-18T10:12:40.128Z,5.67
2022-11-18T10:13:40.115Z,5.71
2022-11-18T10:14:40.108Z,5.67
2022-11-18T10:15:40.031Z,5.79
2022-11-18T10:16:40.071Z,5.68
2022-11-18T10:17:40.030Z,5.75
2022-11-18T10:19:39.985Z,5.68
2022-11-18T10:20:39.972Z,5.65
2022-11-18T10:21:40.106Z,5.60
2022-11-18T10:22:39.971Z,5.43
2022-11-18T10:23:39.828Z,5.40
2022-11-18T10:24:39.916Z,5.35
2022-11-18T10:25:39.864Z,5.39
2022-11-18T10:26:39.911Z,5.35
2022-11-18T10:27:39.962Z,5.33
2022-11-18T10:28:39.840Z,5.40
2022-11-18T10:29:39.909Z,5.46
2022-11-18T10:30:39.823Z,5.43
2022-11-18T10:31:39.760Z,5.54
2022-11-18T10:32:39.730Z,5.54
2022-11-18T10:33:39.759Z,5.42
2022-11-18T10:34:39.850Z,5.53
2022-11-18T10:35:39.650Z,5.51
2022-11-18T10:36:39.810Z,5.46
2022-11-18T10:38:06.187Z,5.49
2022-11-18T10:38:39.657Z,5.48
2022-11-18T10:39:39.750Z,5.51
2022-11-18T10:40:39.543Z,5.42
2022-11-18T10:41:39.614Z,5.35
2022-11-18T10:42:39.593Z,5.51
2022-11-18T10:43:39.550Z,5.51
2022-11-18T10:44:39.639Z,5.48
2022-11-18T10:45:39.510Z,5.43
2022-11-18T10:46:39.536Z,5.49
2022-11-18T10:47:39.466Z,5.46
2022-11-18T10:48:39.508Z,5.40
2022-11-18T10:49:39.387Z,5.43
2022-11-18T10:50:39.548Z,5.35
2022-11-18T10:51:39.406Z,5.46
2022-11-18T10:52:39.390Z,5.46
2022-11-18T10:53:39.379Z,5.45
2022-11-18T10:54:39.333Z,5.49
2022-11-18T10:55:39.302Z,5.54
2022-11-18T10:56:39.448Z,5.51
2022-11-18T10:57:39.323Z,5.56
2022-11-18T10:58:39.311Z,5.53
2022-11-18T10:59:39.187Z,5.51
2022-11-18T11:00:39.302Z,5.43
2022-11-18T11:01:39.330Z,5.33
2022-11-18T11:02:39.234Z,5.33
2022-11-18T11:03:39.181Z,5.35
2022-11-18T11:04:39.188Z,5.33
2022-11-18T11:05:39.157Z,5.35
2022-11-18T11:06:39.175Z,5.38
2022-11-18T11:07:39.140Z,5.27
2022-11-18T11:08:39.051Z,5.35
2022-11-18T11:09:39.067Z,5.36
2022-11-18T11:10:39.119Z,5.27
2022-11-18T11:11:38.992Z,5.33
2022-11-18T11:12:39.165Z,5.25
2022-11-18T11:13:39.004Z,5.25
2022-11-18T11:14:39.052Z,5.17
2022-11-18T11:15:38.948Z,5.12
2022-11-18T11:16:38.965Z,5.13
2022-11-18T11:17:38.991Z,5.12
2022-11-18T11:18:38.927Z,5.09
2022-11-18T11:19:38.896Z,5.15
2022-11-18T11:20:38.939Z,5.15
2022-11-18T11:21:38.850Z,5.21
2022-11-18T11:22:38.806Z,5.15
2022-11-18T11:23:38.956Z,5.15
2022-11-18T11:24:38.858Z,5.20
2022-11-18T11:28:38.720Z,5.24
2022-11-18T11:29:38.709Z,5.15
2022-11-18T11:30:40.859Z,5.12
2022-11-18T11:31:38.665Z,5.13
2022-11-18T11:32:38.657Z,5.09
2022-11-18T11:33:38.640Z,5.04
2022-11-18T11:34:38.649Z,5.09
2022-11-18T11:35:38.639Z,5.07
2022-11-18T11:36:38.682Z,5.09
2022-11-18T11:37:38.591Z,5.10
2022-11-18T11:38:38.565Z,5.09
2022-11-18T11:39:38.514Z,5.04
2022-11-18T11:40:38.590Z,5.00
2022-11-18T11:41:38.474Z,4.94
2022-11-18T11:42:38.469Z,4.97
2022-11-18T11:43:38.367Z,4.94
2022-11-18T11:44:38.429Z,4.96
2022-11-18T11:45:38.437Z,4.99
2022-11-18T11:46:38.401Z,4.94
2022-11-18T11:47:38.377Z,4.86
2022-11-18T11:48:38.349Z,4.86
2022-11-18T11:49:38.320Z,4.97
2022-11-18T11:50:38.347Z,4.94
2022-11-18T11:51:38.310Z,4.84
2022-11-18T11:52:38.394Z,4.78
2022-11-18T11:53:38.162Z,4.88
2022-11-18T11:54:38.138Z,4.82
2022-11-18T11:55:38.118Z,4.85
2022-11-18T11:56:38.098Z,4.80
2022-11-18T11:57:38.077Z,4.89
2022-11-18T11:58:38.190Z,4.91
2022-11-18T11:59:38.107Z,4.75
2022-11-18T12:00:38.022Z,4.59
2022-11-18T12:01:38.048Z,4.58
2022-11-18T12:02:38.040Z,4.52
2022-11-18T12:03:37.966Z,4.66
2022-11-18T12:04:37.953Z,4.66
2022-11-18T12:05:37.927Z,4.60
2022-11-18T12:06:37.918Z,4.69
2022-11-18T12:07:38.049Z,4.65
2022-11-18T12:08:37.873Z,4.72
2022-11-18T12:09:37.854Z,4.84
2022-11-18T12:10:37.836Z,4.78
2022-11-18T12:11:37.881Z,4.72
2022-11-18T12:12:37.803Z,4.78
2022-11-18T12:13:37.942Z,4.72
2022-11-18T12:14:40.050Z,4.70
2022-11-18T12:15:37.752Z,4.72
2022-11-18T12:16:37.730Z,4.72
2022-11-18T12:17:37.716Z,4.69
2022-11-18T12:18:37.732Z,4.69
2022-11-18T12:19:37.665Z,4.67
2022-11-18T12:20:37.663Z,4.63
2022-11-18T12:21:37.628Z,4.59
2022-11-18T12:22:37.610Z,4.59
2022-11-18T12:23:37.655Z,4.55
2022-11-18T12:24:37.579Z,4.59
2022-11-18T12:25:37.553Z,4.72
2022-11-18T12:26:37.559Z,4.67
2022-11-18T12:27:37.514Z,4.66
2022-11-18T12:28:37.496Z,4.60
2022-11-18T12:29:37.512Z,4.65
2022-11-18T12:30:37.477Z,4.52
2022-11-18T12:31:37.463Z,4.65
2022-11-18T12:32:37.428Z,4.60
2022-11-18T12:33:37.401Z,4.52
2022-11-18T12:34:37.393Z,4.48
2022-11-18T12:35:37.365Z,4.40
2022-11-18T12:36:37.346Z,4.37
2022-11-18T12:37:37.372Z,4.36
2022-11-18T12:38:37.307Z,4.45
2022-11-18T12:39:37.295Z,4.44
2022-11-18T12:40:37.278Z,4.45
2022-11-18T12:41:37.264Z,4.40
2022-11-18T12:42:37.233Z,4.50
2022-11-18T12:43:37.324Z,4.44
2022-11-18T12:44:37.301Z,4.50
2022-11-18T12:45:37.300Z,4.50
2022-11-18T12:46:40.123Z,4.54
2022-11-18T12:47:37.187Z,4.60
2022-11-18T12:48:37.402Z,4.54
2022-11-18T12:49:37.253Z,4.37
2022-11-18T12:50:37.356Z,4.44
2022-11-18T12:51:37.222Z,4.34
2022-11-18T12:52:37.173Z,4.47
2022-11-18T12:53:37.261Z,4.48
2022-11-18T12:54:37.159Z,4.47
2022-11-18T12:55:37.119Z,4.48
2022-11-18T12:56:37.116Z,4.48
2022-11-18T12:57:37.125Z,4.50
2022-11-18T12:58:37.216Z,4.42
2022-11-18T12:59:37.075Z,4.47
2022-11-18T13:00:37.027Z,4.40
2022-11-18T13:01:37.020Z,4.36
2022-11-18T13:02:36.965Z,4.37
2022-11-18T13:03:36.947Z,4.44
2022-11-18T13:04:41.439Z,4.44
2022-11-18T13:05:36.962Z,4.42
2022-11-18T13:06:36.860Z,4.47
2022-11-18T13:07:36.963Z,4.40
2022-11-18T13:08:36.766Z,4.41
2022-11-18T13:09:37.005Z,4.42
2022-11-18T13:10:37.105Z,4.34
2022-11-18T13:11:36.814Z,4.26
2022-11-18T13:12:36.769Z,4.12
2022-11-18T13:13:36.933Z,4.20
2022-11-18T13:14:36.757Z,4.23
2022-11-18T13:15:36.702Z,4.27
2022-11-18T13:16:38.278Z,4.24
2022-11-18T13:17:36.704Z,4.23
2022-11-18T13:18:36.674Z,4.27
2022-11-18T13:19:36.708Z,4.30
2022-11-18T13:20:36.652Z,4.15
2022-11-18T13:21:36.597Z,4.14
2022-11-18T13:22:36.606Z,4.14
2022-11-18T13:23:36.603Z,4.18